Time;durP1;ratioP1;P1;durP2;ratioP2;P2;SDS_P1;SDS_P2;PMS_P1;PMS_P2;Temp;Humidity;BMP_temperature;BMP_pressure;BME280_temperature;BME280_humidity;BME280_pressure;Samples;Min_cycle;Max_cycle;Signal;HPM_P1;HPM_P2
2022/07/25 00:01:30;;;;;;;32.00;16.73;;;;;;;21.76;98.86;98729.06;5012069;28;20685;-82
2022/07/25 00:03:56;;;;;;;38.80;18.60;;;;;;;21.35;96.33;98679.75;5015979;28;20163;-82
2022/07/25 00:06:21;;;;;;;30.17;17.07;;;;;;;20.73;96.62;98597.16;5015139;28;20241;-80
2022/07/25 00:08:47;;;;;;;32.53;18.27;;;;;;;20.16;99.63;98468.22;5014919;28;20179;-81
2022/07/25 00:11:12;;;;;;;35.53;18.63;;;;;;;22.42;100.00;98885.56;5015312;28;20178;-81
2022/07/25 00:13:38;;;;;;;35.77;19.00;;;;;;;22.58;100.00;98967.13;5015625;28;20162;-82
2022/07/25 00:16:03;;;;;;;33.50;19.27;;;;;;;22.36;100.00;98898.56;5015681;28;20162;-82
2022/07/25 00:18:29;;;;;;;35.80;20.87;;;;;;;22.37;100.00;98906.28;5013935;28;20186;-83
2022/07/25 00:20:54;;;;;;;29.90;19.07;;;;;;;22.30;100.00;98881.44;5017477;28;20167;-82
2022/07/25 00:23:20;;;;;;;32.00;19.40;;;;;;;21.68;100.00;98768.66;5017594;28;20159;-81
2022/07/25 00:25:45;;;;;;;28.10;18.80;;;;;;;23.23;100.00;98992.13;5017215;28;20222;-82
2022/07/25 00:28:13;;;;;;;27.57;18.30;;;;;;;22.54;100.00;98870.81;5015680;28;20290;-83
2022/07/25 00:30:39;;;;;;;27.03;17.13;;;;;;;21.63;100.00;98691.44;5014841;28;20187;-82
2022/07/25 00:33:04;;;;;;;22.67;17.17;;;;;;;23.44;100.00;98976.34;5014845;28;20178;-81
2022/07/25 00:35:30;;;;;;;24.53;16.40;;;;;;;22.21;100.00;98758.63;5014693;28;20157;-82
2022/07/25 00:37:55;;;;;;;21.77;15.33;;;;;;;23.97;95.38;99035.84;5015070;28;20158;-83
2022/07/25 00:40:21;;;;;;;20.40;14.77;;;;;;;23.97;91.86;99028.09;5014824;28;20624;-83
2022/07/25 00:42:47;;;;;;;17.77;13.90;;;;;;;24.24;87.65;99055.28;5048015;23;20268;-83
2022/07/25 00:45:12;;;;;;;20.63;14.87;;;;;;;24.65;76.97;99102.00;5033863;28;20688;-82
2022/07/25 00:47:38;;;;;;;20.57;15.80;;;;;;;24.39;79.49;99041.22;5034034;28;20601;-82
2022/07/25 00:50:05;;;;;;;17.23;15.27;;;;;;;23.70;80.14;98922.53;5043975;28;20193;-81
2022/07/25 00:52:30;;;;;;;19.67;15.67;;;;;;;24.67;79.45;99083.00;5042813;28;20204;-82
2022/07/25 00:54:56;;;;;;;17.80;14.80;;;;;;;24.61;76.93;99056.31;5056315;28;20147;-82
2022/07/25 00:57:22;;;;;;;17.20;14.10;;;;;;;24.89;71.51;99076.56;5026503;28;20186;-83
2022/07/25 00:59:47;;;;;;;18.20;14.87;;;;;;;25.08;70.64;99083.94;5033929;28;20177;-81
2022/07/25 01:02:13;;;;;;;18.73;14.80;;;;;;;25.28;70.73;99095.66;5034057;28;20166;-83
2022/07/25 01:04:39;;;;;;;16.40;14.67;;;;;;;25.35;69.60;99097.25;5041097;28;20193;-80
2022/07/25 01:07:05;;;;;;;15.60;13.90;;;;;;;25.47;69.74;99094.41;5033860;28;20224;-82
2022/07/25 01:09:31;;;;;;;17.50;14.57;;;;;;;25.36;69.23;99097.22;5034229;28;20655;-83
2022/07/25 01:11:57;;;;;;;15.87;13.10;;;;;;;25.34;66.49;99074.81;5034070;28;20212;-81
2022/07/25 01:14:22;;;;;;;14.60;12.83;;;;;;;23.92;64.15;98837.69;5034087;28;20167;-83
2022/07/25 01:16:48;;;;;;;15.73;13.80;;;;;;;24.63;65.29;98940.69;5034204;28;20193;-83
2022/07/25 01:19:13;;;;;;;16.00;14.30;;;;;;;24.14;65.23;98872.66;5034443;28;20173;-82
2022/07/25 01:21:41;;;;;;;16.30;13.83;;;;;;;25.61;63.87;99095.84;5034273;28;20185;-82
2022/07/25 01:24:08;;;;;;;16.40;13.50;;;;;;;25.56;61.63;99107.19;5034176;28;20646;-83
2022/07/25 01:26:35;;;;;;;14.13;12.73;;;;;;;25.47;59.11;99038.25;5033722;28;20174;-82
2022/07/25 01:29:00;;;;;;;15.00;13.40;;;;;;;25.28;59.62;98982.47;5033892;28;20197;-82
2022/07/25 01:31:26;;;;;;;14.90;12.57;;;;;;;25.36;57.24;98985.75;5033694;28;20642;-82
2022/07/25 01:33:51;;;;;;;15.57;12.17;;;;;;;25.70;55.69;99014.41;5033984;28;20170;-82
2022/07/25 01:36:17;;;;;;;16.70;13.50;;;;;;;25.91;56.37;99036.38;5034413;28;20248;-84
2022/07/25 01:38:42;;;;;;;13.60;12.27;;;;;;;25.79;56.09;99011.59;5032703;28;20178;-82
2022/07/25 01:41:07;;;;;;;15.77;13.43;;;;;;;25.48;57.31;98956.16;5033740;28;20635;-82
2022/07/25 01:43:33;;;;;;;15.20;13.47;;;;;;;25.96;57.12;99006.84;5033507;28;20235;-83
2022/07/25 01:45:58;;;;;;;15.57;13.63;;;;;;;25.85;57.15;99010.59;5040478;28;20162;-81
2022/07/25 01:48:24;;;;;;;15.00;13.23;;;;;;;24.46;56.54;98778.84;5052289;28;20209;-81
2022/07/25 01:50:50;;;;;;;15.33;13.73;;;;;;;24.83;57.19;98839.28;5055203;28;20229;-83
2022/07/25 01:53:15;;;;;;;14.73;13.23;;;;;;;26.23;57.55;99076.25;5034888;28;20652;-83
2022/07/25 01:55:40;;;;;;;17.53;14.13;;;;;;;26.04;59.75;99023.06;5015431;28;20181;-82
2022/07/25 01:58:06;;;;;;;19.83;14.13;;;;;;;26.26;59.37;99055.41;5033388;28;20241;-82
2022/07/25 02:00:32;;;;;;;15.57;14.03;;;;;;;24.81;58.96;98796.19;5033390;28;20163;-81
2022/07/25 02:05:41;;;;;;;15.90;14.27;;;;;;;23.74;61.04;98629.50;5033279;28;20193;-83
2022/07/25 02:08:06;;;;;;;16.23;14.13;;;;;;;23.39;61.00;98612.16;5033023;28;20162;-83
2022/07/25 02:10:31;;;;;;;17.57;15.03;;;;;;;24.62;62.90;98809.53;5033503;28;20251;-84
2022/07/25 02:12:57;;;;;;;17.17;14.63;;;;;;;24.26;62.28;98762.88;5033268;28;20170;-83
2022/07/25 02:15:22;;;;;;;16.57;14.23;;;;;;;23.57;62.75;98657.41;5032938;28;20169;-85
2022/07/25 02:17:48;;;;;;;16.60;14.73;;;;;;;25.30;63.53;98938.41;5032613;28;20273;-83
2022/07/25 02:20:13;;;;;;;20.53;14.23;;;;;;;25.27;63.99;98913.41;5033068;28;20176;-84
2022/07/25 02:22:39;;;;;;;16.67;13.67;;;;;;;25.66;63.92;99005.81;5032953;28;20176;-84
2022/07/25 02:25:04;;;;;;;16.57;13.70;;;;;;;23.38;65.52;98662.09;5032219;28;20181;-83
2022/07/25 02:27:30;;;;;;;17.60;13.40;;;;;;;24.43;66.22;98830.66;5032774;28;20701;-82
2022/07/25 02:29:55;;;;;;;15.80;14.10;;;;;;;23.40;66.67;98644.00;5032194;28;20650;-83
2022/07/25 02:32:21;;;;;;;15.50;13.70;;;;;;;23.18;66.30;98611.69;5032931;28;20175;-83
2022/07/25 02:34:46;;;;;;;17.90;13.87;;;;;;;23.55;65.48;98668.66;5032562;28;20245;-84
2022/07/25 02:37:11;;;;;;;15.27;13.67;;;;;;;25.54;65.46;98982.78;5032847;28;20162;-84
2022/07/25 02:39:37;;;;;;;17.13;14.30;;;;;;;24.95;66.23;98903.75;5048457;28;20170;-84
2022/07/25 02:42:03;;;;;;;18.33;14.20;;;;;;;25.05;65.66;98923.38;5032017;28;20169;-83
2022/07/25 02:44:28;;;;;;;16.03;13.47;;;;;;;25.67;65.87;99017.06;5032682;28;20343;-83
2022/07/25 02:46:54;;;;;;;15.17;13.60;;;;;;;23.28;66.82;98624.41;5032816;28;20170;-83
2022/07/25 02:49:19;;;;;;;14.00;12.43;;;;;;;25.41;67.53;98983.06;5030796;28;20323;-83
2022/07/25 02:51:45;;;;;;;15.30;11.97;;;;;;;24.32;64.96;98804.16;5032933;28;20319;-83
2022/07/25 02:54:11;;;;;;;14.83;12.00;;;;;;;24.76;63.97;98875.69;5033421;28;20181;-84
2022/07/25 02:56:36;;;;;;;13.90;12.10;;;;;;;25.32;65.38;99004.00;5032414;28;20162;-82
2022/07/25 02:59:02;;;;;;;14.47;12.97;;;;;;;24.06;65.50;98784.81;5032275;28;20176;-83
2022/07/25 03:01:28;;;;;;;14.03;12.60;;;;;;;25.48;66.07;99005.41;5032382;28;20202;-83
2022/07/25 03:03:54;;;;;;;16.73;12.40;;;;;;;23.69;66.05;98692.50;5032264;28;20193;-83
2022/07/25 03:06:19;;;;;;;14.03;11.90;;;;;;;23.72;66.47;98747.59;5031622;28;20178;-83
2022/07/25 03:08:45;;;;;;;14.67;13.17;;;;;;;25.24;66.91;99012.78;5031854;28;20173;-83
2022/07/25 03:11:11;;;;;;;13.93;12.43;;;;;;;24.29;67.59;98918.91;5031522;28;20181;-84
2022/07/25 03:13:36;;;;;;;15.87;13.00;;;;;;;22.68;68.18;98670.25;5032631;28;20256;-83
2022/07/25 03:16:02;;;;;;;13.93;12.53;;;;;;;23.42;68.13;98805.88;5031783;28;20173;-82
2022/07/25 03:18:27;;;;;;;14.70;13.10;;;;;;;23.39;66.93;98797.31;5032055;28;20166;-82
2022/07/25 03:20:53;;;;;;;17.70;12.80;;;;;;;23.16;66.71;98733.09;5032162;28;20257;-82
2022/07/25 03:23:18;;;;;;;14.70;12.80;;;;;;;24.86;66.49;99028.25;5032299;28;20251;-84
2022/07/25 03:25:44;;;;;;;14.80;13.13;;;;;;;24.90;66.88;99032.50;5031702;28;20258;-85
2022/07/25 03:28:09;;;;;;;15.23;12.97;;;;;;;22.59;67.15;98635.94;5047362;28;20193;-83
2022/07/25 03:30:35;;;;;;;16.13;13.10;;;;;;;24.35;67.35;98905.00;5034941;28;20591;-84
2022/07/25 03:33:00;;;;;;;13.93;12.43;;;;;;;23.23;68.09;98739.88;5035349;28;20177;-81
2022/07/25 03:35:26;;;;;;;13.83;12.33;;;;;;;23.68;67.15;98831.22;5036153;28;20189;-81
2022/07/25 03:37:52;;;;;;;14.23;12.67;;;;;;;22.01;67.79;98571.56;5035614;28;20192;-84
2022/07/25 03:40:18;;;;;;;15.50;13.07;;;;;;;22.44;68.48;98642.22;5035717;28;20177;-84
2022/07/25 03:42:43;;;;;;;14.27;12.80;;;;;;;23.17;68.82;98780.44;5050472;28;20221;-84
2022/07/25 03:45:09;;;;;;;15.00;13.40;;;;;;;23.57;69.71;98847.81;5051023;28;20212;-83
2022/07/25 03:47:34;;;;;;;16.67;13.43;;;;;;;23.08;69.83;98776.25;5035296;28;20200;-82
2022/07/25 03:50:00;;;;;;;16.13;14.23;;;;;;;24.22;70.60;98994.09;5035921;28;20197;-84
2022/07/25 03:52:25;;;;;;;16.37;14.50;;;;;;;23.83;70.64;98926.63;5035531;28;20178;-85
2022/07/25 03:54:50;;;;;;;15.83;13.13;;;;;;;23.59;70.59;98932.22;5050336;28;20272;-85
2022/07/25 03:57:16;;;;;;;18.83;14.67;;;;;;;21.81;69.78;98597.56;5035582;28;20170;-83
2022/07/25 03:59:41;;;;;;;16.10;13.90;;;;;;;21.98;68.34;98605.09;5035015;28;20177;-81
2022/07/25 04:02:07;;;;;;;18.17;13.73;;;;;;;24.54;67.80;99013.31;5035985;28;20260;-83
2022/07/25 04:04:32;;;;;;;17.03;14.23;;;;;;;24.35;66.59;98965.38;5035534;28;20182;-81
2022/07/25 04:06:58;;;;;;;15.93;14.23;;;;;;;22.89;65.52;98703.44;5035878;28;20223;-82
2022/07/25 04:09:23;;;;;;;15.90;13.07;;;;;;;21.81;64.65;98520.28;5037708;28;20197;-81
2022/07/25 04:11:49;;;;;;;19.57;13.30;;;;;;;23.23;64.39;98736.44;5050289;28;20234;-82
2022/07/25 04:14:14;;;;;;;15.07;13.10;;;;;;;22.12;64.14;98561.94;5059036;28;20166;-81
2022/07/25 04:16:40;;;;;;;15.10;13.50;;;;;;;23.18;64.58;98725.31;5039639;28;20166;-83
2022/07/25 04:19:06;;;;;;;15.10;12.70;;;;;;;23.38;63.80;98749.94;5036277;28;20166;-80
2022/07/25 04:21:32;;;;;;;16.47;13.63;;;;;;;25.17;64.45;99039.72;5034465;28;20182;-83
2022/07/25 04:23:57;;;;;;;15.37;13.70;;;;;;;23.78;64.94;98799.19;5035130;28;20169;-84
2022/07/25 04:26:23;;;;;;;15.37;13.63;;;;;;;24.13;64.47;98841.63;5050965;28;20173;-82
2022/07/25 04:28:48;;;;;;;17.10;13.30;;;;;;;22.98;64.65;98655.09;5036092;28;20166;-83
2022/07/25 04:31:14;;;;;;;17.07;13.53;;;;;;;24.00;64.22;98847.03;5035363;28;20169;-82
2022/07/25 04:33:40;;;;;;;18.10;13.87;;;;;;;23.73;64.65;98803.59;5035134;28;20587;-83
2022/07/25 04:36:06;;;;;;;15.13;13.53;;;;;;;25.45;64.40;99046.91;5035019;28;20158;-82
2022/07/25 04:38:32;;;;;;;18.83;13.50;;;;;;;23.48;64.93;98724.81;5034743;28;20180;-85
2022/07/25 04:40:57;;;;;;;16.77;13.37;;;;;;;25.45;65.46;99054.69;5016870;28;20178;-83
2022/07/25 04:43:23;;;;;;;16.23;14.53;;;;;;;25.09;66.01;99013.13;5021657;28;20593;-83
2022/07/25 04:45:48;;;;;;;16.27;14.13;;;;;;;24.26;65.95;98866.38;5020600;28;20638;-83
2022/07/25 04:48:14;;;;;;;17.40;14.20;;;;;;;24.78;65.42;98930.91;5030910;28;20186;-82
2022/07/25 04:50:39;;;;;;;18.07;14.20;;;;;;;25.39;65.76;99039.25;5014043;28;20285;-83
2022/07/25 04:53:05;;;;;;;18.73;14.43;;;;;;;25.41;66.00;99058.25;5012492;28;20183;-84
2022/07/25 04:55:35;;;;;;;17.47;14.70;;;;;;;25.14;66.37;99006.09;5011171;28;20960;-81
2022/07/25 04:58:01;;;;;;;18.13;14.27;;;;;;;25.33;66.52;99042.84;5022490;28;20233;-83
2022/07/25 05:00:26;;;;;;;16.10;14.50;;;;;;;25.62;65.78;99061.25;5020191;28;20187;-83
2022/07/25 05:02:52;;;;;;;14.90;12.90;;;;;;;24.00;65.50;98807.38;5012087;28;20324;-80
2022/07/25 05:05:19;;;;;;;18.57;14.33;;;;;;;24.92;66.34;98958.22;5015431;28;20811;-84
2022/07/25 05:07:44;;;;;;;16.67;13.93;;;;;;;22.76;65.61;98598.69;5033910;28;20185;-83
2022/07/25 05:10:10;;;;;;;15.40;13.70;;;;;;;23.93;65.36;98779.91;5034570;28;20190;-83
2022/07/25 05:12:35;;;;;;;15.80;14.10;;;;;;;25.49;65.49;99017.50;5033736;28;20213;-83
2022/07/25 05:15:02;;;;;;;16.90;13.67;;;;;;;25.82;64.90;99071.19;5035182;28;20165;-83
2022/07/25 05:17:28;;;;;;;15.67;13.50;;;;;;;24.76;64.82;98902.44;5033197;28;20565;-82
2022/07/25 05:19:53;;;;;;;14.93;13.20;;;;;;;23.93;65.58;98754.91;5034752;28;20170;-84
2022/07/25 05:22:18;;;;;;;16.53;14.07;;;;;;;25.21;65.32;98957.59;5033558;28;20180;-85
2022/07/25 05:24:44;;;;;;;17.83;14.20;;;;;;;23.65;64.68;98637.44;5032170;28;20176;-84
2022/07/25 05:27:09;;;;;;;16.70;13.90;;;;;;;23.52;64.61;98632.53;5033515;28;20249;-84
2022/07/25 05:29:35;;;;;;;17.70;13.87;;;;;;;25.23;64.34;98917.81;5048867;28;20292;-82
2022/07/25 05:37:03;;;;;;;17.30;14.37;;;;;;;25.23;64.16;98906.59;4969733;28;20215;-88
2022/07/25 05:39:28;;;;;;;16.43;14.30;;;;;;;26.11;64.36;99040.19;4980435;28;20184;-91
2022/07/25 05:41:54;;;;;;;17.40;14.50;;;;;;;26.55;63.55;99075.47;4973994;28;20184;-89
2022/07/25 05:44:20;;;;;;;18.10;14.07;;;;;;;25.90;63.98;98996.63;4974688;28;20194;-86
2022/07/25 05:46:45;;;;;;;17.70;14.53;;;;;;;25.68;63.18;98928.84;4974201;28;20207;-87
2022/07/25 05:49:10;;;;;;;15.30;13.70;;;;;;;26.63;63.01;99075.25;4984986;28;20227;-87
2022/07/25 05:51:36;;;;;;;20.23;14.60;;;;;;;25.84;64.42;98968.25;4973688;28;20246;-84
2022/07/25 05:54:01;;;;;;;16.23;14.53;;;;;;;26.58;63.90;99071.94;4976599;28;20614;-88
2022/07/25 05:56:28;;;;;;;17.90;14.73;;;;;;;26.76;62.84;99081.81;4978538;28;20188;-88
2022/07/25 05:58:54;;;;;;;18.30;14.37;;;;;;;26.05;62.97;98931.38;4970894;28;20231;-86
2022/07/25 06:01:19;;;;;;;17.33;15.37;;;;;;;26.77;63.45;99071.41;4987281;28;20211;-85
2022/07/25 06:03:45;;;;;;;19.03;15.13;;;;;;;26.84;62.48;99057.38;4973624;28;20884;-85
2022/07/25 06:06:10;;;;;;;18.17;15.13;;;;;;;27.13;62.03;99066.13;4976302;28;20188;-83
2022/07/25 06:08:37;;;;;;;17.75;14.85;;;;;;;26.17;62.39;98920.72;4985909;28;20239;-85
2022/07/25 06:11:04;;;;;;;21.67;16.15;;;;;;;27.16;61.40;99048.69;4979077;28;20290;-84
2022/07/25 06:13:31;;;;;;;18.27;14.55;;;;;;;25.95;61.10;98843.44;4971967;28;20677;-85
2022/07/25 06:15:56;;;;;;;19.25;15.30;;;;;;;27.57;60.32;99063.09;4973264;28;20185;-85
2022/07/25 06:18:23;;;;;;;17.73;14.60;;;;;;;27.31;59.85;99026.56;4971013;28;20196;-86
2022/07/25 06:20:48;;;;;;;18.08;15.18;;;;;;;27.57;60.25;99063.09;4972245;28;20191;-86
2022/07/25 06:23:14;;;;;;;17.52;14.63;;;;;;;27.46;59.64;98990.63;4971835;28;20201;-85
2022/07/25 06:25:39;;;;;;;19.45;15.35;;;;;;;27.55;59.04;98986.03;4972092;28;20192;-85
2022/07/25 06:28:05;;;;;;;19.50;15.00;;;;;;;27.75;58.53;98978.41;4972575;28;20218;-81
2022/07/25 06:30:31;;;;;;;17.00;14.77;;;;;;;28.03;57.68;99044.31;4971258;28;20215;-80
2022/07/25 06:32:56;;;;;;;18.80;14.88;;;;;;;27.48;60.37;99007.00;4970989;28;20193;-83
2022/07/25 06:35:22;;;;;;;18.38;15.18;;;;;;;27.87;60.38;99036.13;4968438;28;20317;-85
2022/07/25 06:38:03;;;;;;;17.42;14.70;;;;;;;27.60;59.80;99004.94;4967869;28;20183;-85
2022/07/25 06:40:28;;;;;;;23.40;15.13;;;;;;;28.02;58.72;99058.19;4970761;28;20598;-86
2022/07/25 06:42:54;;;;;;;19.70;14.95;;;;;;;27.78;57.60;98929.75;4971794;28;20191;-85
2022/07/25 06:45:20;;;;;;;18.00;15.02;;;;;;;28.32;57.71;99049.41;4971810;28;20187;-85
2022/07/25 06:47:45;;;;;;;20.33;15.20;;;;;;;28.32;56.68;99057.22;4971439;28;20607;-84
2022/07/25 06:50:14;;;;;;;18.05;14.77;;;;;;;27.65;56.00;98927.59;4973199;28;20555;-84
2022/07/25 06:52:39;;;;;;;17.50;14.00;;;;;;;28.18;57.08;99050.78;4972613;28;20187;-84
2022/07/25 06:55:06;;;;;;;16.20;14.52;;;;;;;26.59;57.01;98837.31;4971949;28;20632;-86
2022/07/25 06:57:32;;;;;;;19.67;15.55;;;;;;;27.96;58.08;99048.00;4969003;28;20198;-85
2022/07/25 07:00:03;;;;;;;18.65;15.13;;;;;;;28.09;56.51;99011.16;4974320;28;20187;-88
2022/07/25 07:02:32;;;;;;;18.00;15.00;;;;;;;27.92;56.83;98963.09;4987503;28;20281;-86
2022/07/25 07:04:57;;;;;;;18.65;15.35;;;;;;;27.70;56.29;98941.28;4968242;28;20188;-85
2022/07/25 07:07:23;;;;;;;18.40;15.18;;;;;;;27.95;56.20;99002.91;4983106;28;20200;-86
2022/07/25 07:09:48;;;;;;;18.58;14.75;;;;;;;27.39;56.55;98924.03;4970720;28;20279;-86
2022/07/25 07:12:14;;;;;;;17.85;14.15;;;;;;;27.55;55.04;98923.59;4971045;28;20212;-87
2022/07/25 07:14:40;;;;;;;18.65;13.80;;;;;;;27.96;55.09;98962.13;4960673;28;20682;-87
2022/07/25 07:17:06;;;;;;;15.38;13.55;;;;;;;28.34;54.22;99038.97;4971903;28;20239;-85
2022/07/25 07:19:31;;;;;;;21.33;14.63;;;;;;;28.14;55.41;99002.31;4961059;28;20182;-87
2022/07/25 07:21:57;;;;;;;17.67;14.50;;;;;;;28.23;54.23;98958.59;4958725;28;20188;-85
2022/07/25 07:24:22;;;;;;;18.50;14.38;;;;;;;27.97;53.54;98831.06;4973919;28;20189;-85
2022/07/25 07:26:47;;;;;;;15.93;13.95;;;;;;;29.23;52.87;99061.88;4969796;28;20514;-86
2022/07/25 07:29:13;;;;;;;17.98;13.80;;;;;;;29.01;52.80;99050.47;4953103;28;20207;-87
2022/07/25 07:31:43;;;;;;;16.05;13.70;;;;;;;28.81;53.99;99048.63;4972017;28;20191;-86
2022/07/25 07:34:10;;;;;;;15.52;13.88;;;;;;;28.81;55.09;99045.16;4975294;28;20738;-87
2022/07/25 07:36:35;;;;;;;17.98;13.75;;;;;;;28.28;53.96;98992.28;4992906;28;20222;-86
2022/07/25 07:39:01;;;;;;;15.20;13.18;;;;;;;28.01;54.31;98960.19;4990454;28;20175;-87
2022/07/25 07:41:26;;;;;;;18.15;14.10;;;;;;;27.09;54.52;98820.19;4973288;28;20193;-86
2022/07/25 07:43:52;;;;;;;14.50;13.00;;;;;;;28.28;54.38;99044.38;4992777;28;20188;-86
2022/07/25 07:46:17;;;;;;;19.92;13.38;;;;;;;28.15;54.38;98997.06;4988325;28;20184;-85
2022/07/25 07:48:43;;;;;;;16.33;13.25;;;;;;;28.58;53.07;99049.38;4970803;28;20189;-85
2022/07/25 07:51:09;;;;;;;16.05;13.75;;;;;;;28.12;51.95;98908.66;4988677;28;20214;-87
2022/07/25 07:56:19;;;;;;;14.73;13.20;;;;;;;29.34;49.39;98944.94;4991522;28;20205;-85
2022/07/25 07:58:44;;;;;;;14.95;13.07;;;;;;;28.88;49.54;98812.91;4990177;28;20205;-86
2022/07/25 08:01:10;;;;;;;15.30;12.80;;;;;;;29.93;49.11;99002.59;4989466;28;20180;-85
2022/07/25 08:03:36;;;;;;;14.70;12.82;;;;;;;30.22;48.55;99035.34;4983330;28;20215;-86
2022/07/25 08:06:02;;;;;;;16.52;13.40;;;;;;;30.97;46.71;99041.72;4986616;28;20256;-85
2022/07/25 08:08:27;;;;;;;14.00;12.60;;;;;;;29.59;45.59;98789.09;4983203;28;20182;-86
2022/07/25 08:10:53;;;;;;;16.00;12.65;;;;;;;30.28;45.78;98948.88;4972814;28;20327;-86
2022/07/25 08:13:29;;;;;;;14.68;12.35;;;;;;;30.86;45.63;99018.63;4989275;28;20248;-87
2022/07/25 08:15:58;;;;;;;15.70;12.85;;;;;;;30.58;46.03;98936.25;4993154;28;20189;-88
2022/07/25 08:18:25;;;;;;;15.45;12.80;;;;;;;29.63;43.03;98665.44;4993841;28;20204;-88
2022/07/25 08:20:51;;;;;;;15.57;12.23;;;;;;;30.14;44.01;98885.94;4976441;28;20189;-86
2022/07/25 08:23:17;;;;;;;14.07;12.07;;;;;;;31.09;43.42;99022.88;4992469;28;20863;-86
2022/07/25 08:25:44;;;;;;;13.35;11.90;;;;;;;30.84;43.14;98947.25;4994543;28;20725;-86
2022/07/25 08:28:10;;;;;;;14.02;12.23;;;;;;;30.69;42.39;98916.56;5001548;28;20198;-85
2022/07/25 08:30:37;;;;;;;15.63;12.55;;;;;;;30.12;43.48;98819.88;5004917;28;20608;-85
2022/07/25 08:33:05;;;;;;;15.65;12.77;;;;;;;29.80;43.84;98743.00;4994730;28;20185;-86
2022/07/25 08:35:33;;;;;;;13.98;12.32;;;;;;;31.73;42.56;98973.59;4985242;28;20296;-85
2022/07/25 08:37:59;;;;;;;14.75;12.48;;;;;;;31.78;42.47;98995.16;4994934;28;20182;-87
2022/07/25 08:40:26;;;;;;;14.43;12.88;;;;;;;31.11;42.26;98903.31;4994897;28;20257;-87
2022/07/25 08:42:53;;;;;;;13.88;11.90;;;;;;;31.24;42.41;98922.72;4991643;28;20564;-87
2022/07/25 08:45:20;;;;;;;16.27;13.02;;;;;;;32.31;41.29;99026.56;4994548;28;20658;-86
2022/07/25 08:47:48;;;;;;;13.07;11.77;;;;;;;31.53;41.68;98952.78;4994267;28;20194;-86
2022/07/25 08:50:19;;;;;;;15.15;12.80;;;;;;;32.34;40.90;99020.34;4993776;28;20249;-86
2022/07/25 08:52:48;;;;;;;13.05;11.65;;;;;;;31.45;39.49;98776.94;4978297;28;20196;-86
2022/07/25 08:55:18;;;;;;;14.18;11.65;;;;;;;33.29;38.41;99023.19;4973440;28;20674;-86
2022/07/25 08:57:45;;;;;;;12.20;10.98;;;;;;;32.89;37.94;99026.22;4973694;28;20246;-86
2022/07/25 09:00:15;;;;;;;12.30;11.10;;;;;;;33.75;37.29;99019.75;4974608;28;20180;-86
2022/07/25 09:02:40;;;;;;;12.07;10.88;;;;;;;33.40;36.80;99014.72;4983120;28;20187;-87
2022/07/25 09:05:07;;;;;;;12.80;10.85;;;;;;;32.17;37.48;98903.28;4999405;28;20188;-87
2022/07/25 09:07:36;;;;;;;12.25;11.10;;;;;;;33.24;37.20;99015.56;4993447;28;20218;-87
2022/07/25 09:10:24;;;;;;;13.63;10.88;;;;;;;32.21;37.99;98931.03;4995241;28;20241;-86
2022/07/25 09:13:01;;;;;;;12.48;10.70;;;;;;;33.61;36.77;99013.56;4988445;28;20249;-86
2022/07/25 09:15:29;;;;;;;11.82;10.60;;;;;;;33.80;35.71;99008.97;4991278;28;20690;-86
2022/07/25 09:17:57;;;;;;;11.73;10.52;;;;;;;34.09;35.87;98978.41;4980603;28;20192;-88
2022/07/25 09:20:35;;;;;;;14.07;10.98;;;;;;;34.81;34.97;99009.97;4971947;28;20204;-87
2022/07/25 09:23:00;;;;;;;11.73;10.60;;;;;;;35.15;34.26;98961.41;4980524;28;20186;-87
2022/07/25 09:25:30;;;;;;;11.98;10.52;;;;;;;35.40;34.03;99003.66;4990235;28;20202;-86
2022/07/25 09:28:17;;;;;;;14.05;11.98;;;;;;;35.04;33.37;98922.56;4990466;28;20187;-86
2022/07/25 09:31:00;;;;;;;11.48;10.38;;;;;;;35.10;34.00;98953.81;4972179;28;20756;-85
2022/07/25 09:33:27;;;;;;;10.35;9.35;;;;;;;34.61;31.90;98823.63;4980786;28;20569;-86
2022/07/25 09:35:54;;;;;;;11.07;9.60;;;;;;;35.18;32.37;98972.59;4960648;28;20297;-86
2022/07/25 09:38:20;;;;;;;10.57;9.57;;;;;;;33.77;32.44;98722.84;4986528;28;20202;-86
2022/07/25 09:40:57;;;;;;;11.10;10.00;;;;;;;35.81;33.17;99008.91;4975700;28;20663;-85
2022/07/25 09:43:37;;;;;;;11.82;10.57;;;;;;;35.32;33.34;98930.44;4989473;28;20596;-86
2022/07/25 09:46:03;;;;;;;11.88;10.63;;;;;;;35.73;32.18;99004.16;4992338;28;20191;-86
2022/07/25 09:48:29;;;;;;;10.90;9.82;;;;;;;35.76;32.55;98979.41;4991857;28;20183;-86
2022/07/25 09:50:55;;;;;;;11.00;9.88;;;;;;;35.75;32.20;98972.44;4992363;28;20227;-85
2022/07/25 09:53:20;;;;;;;11.52;10.27;;;;;;;35.58;32.04;98923.47;4991634;28;20187;-86
2022/07/25 09:55:46;;;;;;;11.23;10.13;;;;;;;35.48;33.00;98952.19;4991539;28;20179;-86
2022/07/25 09:58:12;;;;;;;11.65;10.45;;;;;;;35.90;32.15;98997.78;4992687;28;20183;-87
2022/07/25 10:00:40;;;;;;;12.00;10.02;;;;;;;36.00;32.34;98991.78;4988921;28;20558;-86
2022/07/25 10:03:24;;;;;;;11.43;10.20;;;;;;;35.66;32.58;98986.19;4976169;28;20234;-86
2022/07/25 10:06:32;;;;;;;12.15;10.90;;;;;;;35.00;32.78;98920.25;4986634;28;20598;-87
2022/07/25 10:08:58;;;;;;;10.82;9.82;;;;;;;35.29;33.02;98980.66;4951545;28;20669;-86
2022/07/25 10:11:25;;;;;;;11.60;10.50;;;;;;;34.92;34.24;98963.66;4951844;28;20275;-87
2022/07/25 10:13:53;;;;;;;12.27;10.75;;;;;;;34.64;34.09;98954.97;4950300;28;20795;-86
2022/07/25 10:16:22;;;;;;;11.48;10.38;;;;;;;34.87;33.58;98973.63;4959304;28;20202;-84
2022/07/25 10:18:57;;;;;;;11.98;10.75;;;;;;;35.20;33.25;98975.13;4949457;28;20204;-83
2022/07/25 10:21:24;;;;;;;11.68;10.50;;;;;;;34.74;32.87;98866.63;4950440;28;20195;-83
2022/07/25 10:24:06;;;;;;;11.73;10.40;;;;;;;35.43;33.36;98966.59;4949696;29;20263;-84
2022/07/25 10:26:35;;;;;;;11.52;10.38;;;;;;;35.44;32.63;98955.94;4949565;28;20200;-83
2022/07/25 10:29:07;;;;;;;12.70;10.90;;;;;;;34.73;32.93;98864.94;4951666;29;20185;-88
2022/07/25 10:31:34;;;;;;;12.23;10.57;;;;;;;35.47;33.02;98961.03;4953446;29;20283;-90
2022/07/25 10:34:03;;;;;;;12.00;10.90;;;;;;;35.06;32.47;98896.13;4954427;29;20207;-89
2022/07/25 10:36:44;;;;;;;11.52;10.43;;;;;;;34.93;33.02;98923.25;4952541;29;20378;-89
2022/07/25 10:39:12;;;;;;;11.88;10.68;;;;;;;33.19;32.79;98610.84;4952255;28;20218;-88
2022/07/25 10:41:49;;;;;;;13.57;10.68;;;;;;;34.85;33.21;98864.16;4950081;28;20193;-85
2022/07/25 10:44:18;;;;;;;12.88;10.90;;;;;;;34.65;33.25;98873.31;4946626;29;20185;-91
2022/07/25 10:46:44;;;;;;;12.40;11.00;;;;;;;35.04;32.14;98900.66;4966463;28;20693;-88
2022/07/25 10:49:21;;;;;;;12.00;10.85;;;;;;;34.30;33.08;98862.31;4992526;28;20234;-86
2022/07/25 10:51:59;;;;;;;12.20;10.70;;;;;;;34.82;33.35;98938.03;4993184;28;20233;-87
2022/07/25 10:54:25;;;;;;;12.55;11.30;;;;;;;34.98;33.37;98920.31;4993966;28;20183;-86
2022/07/25 10:56:57;;;;;;;12.98;10.77;;;;;;;34.99;33.36;98935.19;4976774;28;20289;-86
2022/07/25 10:59:26;;;;;;;12.50;11.18;;;;;;;35.27;33.28;98934.31;4992993;28;20270;-87
2022/07/25 11:01:52;;;;;;;12.82;11.52;;;;;;;34.38;33.38;98804.84;4984504;28;20292;-87
2022/07/25 11:04:18;;;;;;;13.02;11.45;;;;;;;34.09;33.99;98832.06;4991932;28;20311;-86
2022/07/25 11:06:43;;;;;;;13.23;11.77;;;;;;;34.15;33.23;98844.00;4980621;28;20274;-86
2022/07/25 11:09:23;;;;;;;14.05;12.15;;;;;;;33.71;34.57;98741.59;4990946;28;20189;-86
2022/07/25 11:11:52;;;;;;;12.90;11.60;;;;;;;34.37;35.27;98858.38;4993898;28;20191;-86
2022/07/25 11:14:32;;;;;;;12.32;11.13;;;;;;;33.98;34.41;98795.06;4978079;28;20188;-87
2022/07/25 11:17:18;;;;;;;13.73;11.75;;;;;;;32.98;34.50;98688.19;4983432;28;20571;-87
2022/07/25 11:19:53;;;;;;;14.27;11.68;;;;;;;34.53;33.84;98912.66;4979670;28;20267;-88
2022/07/25 11:22:18;;;;;;;13.10;11.82;;;;;;;34.75;33.78;98911.25;4992850;28;20197;-87
2022/07/25 11:24:45;;;;;;;13.10;11.90;;;;;;;34.23;34.17;98802.31;4990272;28;20182;-86
2022/07/25 11:27:22;;;;;;;14.98;12.00;;;;;;;35.04;34.21;98885.72;4989052;28;20241;-86